createdAt,value
2019-02-28T00:00:59.509Z,83.60
2019-02-28T00:01:52.108Z,83.47
2019-02-28T00:02:42.634Z,83.59
2019-02-28T00:03:33.883Z,83.57
2019-02-28T00:04:24.173Z,83.41
2019-02-28T00:05:14.947Z,83.66
2019-02-28T00:06:05.658Z,83.51
2019-02-28T00:06:56.106Z,83.44
2019-02-28T00:07:49.670Z,83.48
2019-02-28T00:08:36.881Z,83.47
2019-02-28T00:09:27.631Z,83.50
2019-02-28T00:10:17.992Z,83.49
2019-02-28T00:11:09.261Z,83.61
2019-02-28T00:11:59.478Z,83.59
2019-02-28T00:12:50.314Z,83.57
2019-02-28T00:13:41.246Z,83.61
2019-02-28T00:14:31.457Z,83.66
2019-02-28T00:15:21.831Z,83.54
2019-02-28T00:16:12.903Z,83.52
2019-02-28T00:17:06.161Z,83.37
2019-02-28T00:17:55.720Z,83.43
2019-02-28T00:18:49.543Z,83.30
2019-02-28T00:19:37.674Z,83.20
2019-02-28T00:20:29.123Z,83.18
2019-02-28T00:21:19.415Z,83.03
2019-02-28T00:22:11.342Z,83.06
2019-02-28T00:23:00.107Z,83.05
2019-02-28T00:23:50.244Z,83.21
2019-02-28T00:24:40.408Z,83.49
2019-02-28T00:25:30.891Z,83.51
2019-02-28T00:26:21.633Z,83.57
2019-02-28T00:27:12.304Z,83.57
2019-02-28T00:28:02.510Z,83.69
2019-02-28T00:28:52.587Z,83.63
2019-02-28T00:29:43.241Z,83.61
2019-02-28T00:30:33.962Z,83.69
2019-02-28T00:31:27.604Z,83.67
2019-02-28T00:32:18.111Z,83.82
2019-02-28T00:33:08.819Z,83.80
2019-02-28T00:34:04.532Z,83.87
2019-02-28T00:34:49.634Z,83.78
2019-02-28T00:35:40.200Z,83.71
2019-02-28T00:36:30.627Z,83.77
2019-02-28T00:37:21.138Z,83.66
2019-02-28T00:38:11.111Z,83.63
2019-02-28T00:39:03.928Z,83.69
2019-02-28T00:39:52.854Z,83.61
2019-02-28T00:40:43.201Z,83.59
2019-02-28T00:41:33.567Z,83.63
2019-02-28T00:42:24.303Z,83.48
2019-02-28T00:43:14.901Z,83.54
2019-02-28T00:44:05.577Z,83.60
2019-02-28T00:44:56.225Z,83.64
2019-02-28T00:45:46.397Z,83.78
2019-02-28T00:46:36.709Z,83.80
2019-02-28T00:47:27.026Z,83.78
2019-02-28T00:48:18.309Z,83.92
2019-02-28T00:49:07.763Z,83.76
2019-02-28T00:49:58.234Z,83.67
2019-02-28T00:50:48.735Z,83.75
2019-02-28T00:51:40.770Z,83.82
2019-02-28T00:52:32.055Z,83.69
2019-02-28T00:53:21.310Z,83.64
2019-02-28T00:54:12.456Z,83.71
2019-02-28T00:55:02.668Z,83.76
2019-02-28T00:55:52.980Z,83.81
2019-02-28T00:56:43.359Z,84.08
2019-02-28T00:57:33.924Z,83.95
2019-02-28T00:58:28.636Z,84.05
2019-02-28T00:59:15.158Z,83.84
2019-02-28T01:00:06.280Z,83.91
2019-02-28T01:00:55.359Z,83.88
2019-02-28T01:01:46.923Z,83.76
2019-02-28T01:02:36.143Z,83.68
2019-02-28T01:03:27.458Z,83.60
2019-02-28T01:04:16.584Z,83.63
2019-02-28T01:05:06.607Z,83.79
2019-02-28T01:05:56.964Z,83.64
2019-02-28T01:06:47.174Z,83.64
2019-02-28T01:07:37.207Z,83.67
2019-02-28T01:08:27.948Z,83.68
2019-02-28T01:09:18.109Z,83.57
2019-02-28T01:10:08.960Z,83.67
2019-02-28T01:10:59.632Z,83.59
2019-02-28T01:11:50.374Z,83.65
2019-02-28T01:12:40.709Z,83.58
2019-02-28T01:13:31.611Z,83.53
2019-02-28T01:14:22.320Z,83.67
2019-02-28T01:15:13.208Z,83.65
2019-02-28T01:16:03.280Z,83.50
2019-02-28T01:16:53.690Z,83.42
2019-02-28T01:17:44.298Z,83.44
2019-02-28T01:18:35.387Z,83.65
2019-02-28T01:19:24.711Z,83.74
2019-02-28T01:20:16.506Z,83.88
2019-02-28T01:21:05.584Z,83.72
2019-02-28T01:21:56.596Z,83.77
2019-02-28T01:22:46.700Z,83.74
2019-02-28T01:23:36.983Z,83.67
2019-02-28T01:24:28.321Z,83.66
2019-02-28T01:25:19.211Z,83.67
2019-02-28T01:26:11.804Z,83.58
2019-02-28T01:26:59.561Z,83.48
2019-02-28T01:27:52.430Z,83.52
2019-02-28T01:28:41.267Z,83.51
2019-02-28T01:29:32.960Z,83.63
2019-02-28T01:30:22.430Z,83.44
2019-02-28T01:31:14.435Z,83.61
2019-02-28T01:32:04.588Z,83.76
2019-02-28T01:32:54.934Z,83.87
2019-02-28T01:33:46.215Z,83.89
2019-02-28T01:34:36.772Z,83.71
2019-02-28T01:35:27.408Z,83.98
2019-02-28T01:36:17.549Z,84.15
2019-02-28T01:37:08.101Z,84.09
2019-02-28T01:37:58.486Z,84.04
2019-02-28T01:38:48.858Z,83.92
2019-02-28T01:39:39.100Z,83.94
2019-02-28T01:40:29.815Z,84.24
2019-02-28T01:41:20.199Z,84.20
2019-02-28T01:42:10.965Z,84.16
2019-02-28T01:43:01.814Z,84.22
2019-02-28T01:43:51.988Z,84.19
2019-02-28T01:44:42.311Z,84.15
2019-02-28T01:45:33.060Z,84.16
2019-02-28T01:46:23.447Z,84.08
2019-02-28T01:47:13.906Z,84.29
2019-02-28T01:48:04.464Z,84.13
2019-02-28T01:48:55.203Z,84.13
2019-02-28T01:49:46.249Z,84.09
2019-02-28T01:50:36.440Z,84.02
2019-02-28T01:51:26.317Z,84.02
2019-02-28T01:52:16.879Z,84.09
2019-02-28T01:53:07.949Z,84.07
2019-02-28T01:53:58.428Z,84.08
2019-02-28T01:54:48.971Z,84.02
2019-02-28T01:55:39.384Z,84.03
2019-02-28T01:56:30.180Z,84.00
2019-02-28T01:57:20.591Z,84.15
2019-02-28T01:58:10.623Z,84.16
2019-02-28T01:59:01.298Z,83.96
2019-02-28T01:59:52.904Z,84.07
2019-02-28T02:00:42.183Z,84.14
2019-02-28T02:01:32.285Z,83.98
2019-02-28T02:02:23.060Z,83.89
2019-02-28T02:03:13.225Z,84.07
2019-02-28T02:04:03.990Z,84.24
2019-02-28T02:04:54.572Z,84.06
2019-02-28T02:05:45.156Z,84.03
2019-02-28T02:06:35.316Z,84.12
2019-02-28T02:07:25.780Z,84.09
2019-02-28T02:08:16.243Z,84.09
2019-02-28T02:09:08.051Z,83.97
2019-02-28T02:09:56.747Z,84.08
2019-02-28T02:10:47.461Z,84.34
2019-02-28T02:11:37.829Z,84.19
2019-02-28T02:12:31.261Z,84.23
2019-02-28T02:13:18.607Z,84.35
2019-02-28T02:14:11.001Z,84.19
2019-02-28T02:15:00.332Z,84.23
2019-02-28T02:15:51.244Z,84.21
2019-02-28T02:16:40.779Z,84.10
2019-02-28T02:17:32.255Z,84.16
2019-02-28T02:18:22.465Z,84.17
2019-02-28T02:19:17.521Z,84.09
2019-02-28T02:20:04.993Z,83.96
2019-02-28T02:20:57.419Z,84.00
2019-02-28T02:21:46.658Z,84.07
2019-02-28T02:22:37.254Z,84.05
2019-02-28T02:23:27.419Z,84.14
2019-02-28T02:24:17.688Z,84.18
2019-02-28T02:25:08.602Z,84.13
2019-02-28T02:25:59.021Z,84.44
2019-02-28T02:26:49.862Z,84.19
2019-02-28T02:27:40.098Z,84.21
2019-02-28T02:28:30.353Z,84.20
2019-02-28T02:29:20.558Z,84.34
2019-02-28T02:30:15.776Z,84.27
2019-02-28T02:31:03.814Z,84.33
2019-02-28T02:31:54.079Z,84.24
2019-02-28T02:32:44.422Z,84.35
2019-02-28T02:33:34.404Z,84.26
2019-02-28T02:34:28.284Z,84.34
2019-02-28T02:35:15.445Z,84.26
2019-02-28T02:36:06.526Z,84.42
2019-02-28T02:36:57.411Z,84.26
2019-02-28T02:37:47.879Z,84.15
2019-02-28T02:38:41.549Z,84.29
2019-02-28T02:39:29.760Z,84.22
2019-02-28T02:40:22.942Z,84.16
2019-02-28T02:41:10.179Z,84.30
2019-02-28T02:42:00.248Z,84.13
2019-02-28T02:42:50.572Z,84.01
2019-02-28T02:43:41.082Z,83.95
2019-02-28T02:44:32.096Z,83.91
2019-02-28T02:45:22.041Z,84.02
2019-02-28T02:46:19.462Z,84.04
2019-02-28T02:47:03.416Z,84.31
2019-02-28T02:47:54.167Z,84.33
2019-02-28T02:48:44.580Z,84.22
2019-02-28T02:49:35.111Z,84.11
2019-02-28T02:50:34.327Z,84.26
2019-02-28T02:51:16.029Z,84.34
2019-02-28T02:52:06.244Z,84.32
2019-02-28T02:52:56.329Z,84.21
2019-02-28T02:53:47.370Z,84.21
2019-02-28T02:54:38.049Z,84.18
2019-02-28T02:55:29.188Z,84.18
2019-02-28T02:56:18.118Z,84.17
2019-02-28T02:57:08.593Z,84.25
2019-02-28T02:57:58.848Z,84.18
2019-02-28T02:58:49.620Z,84.31
2019-02-28T02:59:40.620Z,84.41
2019-02-28T03:00:31.282Z,84.38
2019-02-28T03:01:23.044Z,84.21
2019-02-28T03:02:12.586Z,84.21
2019-02-28T03:03:06.124Z,84.01
2019-02-28T03:03:52.603Z,83.97
2019-02-28T03:04:43.486Z,83.92
2019-02-28T03:05:35.964Z,83.90
2019-02-28T03:06:23.871Z,83.89
2019-02-28T03:07:14.006Z,83.89
2019-02-28T03:08:04.291Z,84.05
2019-02-28T03:08:54.570Z,84.24
2019-02-28T03:09:44.880Z,84.14
2019-02-28T03:10:34.635Z,84.14
2019-02-28T03:11:26.054Z,84.27
2019-02-28T03:12:16.368Z,84.24
2019-02-28T03:13:06.807Z,84.19
2019-02-28T03:13:58.111Z,84.13
2019-02-28T03:14:48.981Z,83.96
2019-02-28T03:15:38.960Z,83.88
2019-02-28T03:16:32.955Z,83.90
2019-02-28T03:17:19.641Z,83.99
2019-02-28T03:18:09.936Z,83.87
2019-02-28T03:18:59.911Z,83.86
2019-02-28T03:19:50.105Z,83.84
2019-02-28T03:20:41.106Z,83.86
2019-02-28T03:21:30.242Z,84.03
2019-02-28T03:22:24.538Z,84.04
2019-02-28T03:23:10.827Z,84.05
2019-02-28T03:24:01.019Z,84.17
2019-02-28T03:24:52.308Z,84.20
2019-02-28T03:25:41.526Z,84.15
2019-02-28T03:26:31.875Z,84.02
2019-02-28T03:27:22.138Z,83.98
2019-02-28T03:28:14.057Z,83.97
2019-02-28T03:29:07.510Z,83.93
2019-02-28T03:29:53.837Z,83.85
2019-02-28T03:30:44.157Z,84.01
2019-02-28T03:31:34.870Z,84.09
2019-02-28T03:32:25.534Z,84.27
2019-02-28T03:33:25.177Z,84.11
2019-02-28T03:34:13.235Z,84.04
2019-02-28T03:34:59.133Z,84.06
2019-02-28T03:35:46.942Z,83.98
2019-02-28T03:36:37.647Z,83.90
2019-02-28T03:37:32.806Z,84.11
2019-02-28T03:38:18.572Z,84.55
2019-02-28T03:39:08.886Z,84.38
2019-02-28T03:40:04.378Z,84.57
2019-02-28T03:40:51.249Z,84.54
2019-02-28T03:41:41.374Z,84.59
2019-02-28T03:42:31.597Z,84.65
2019-02-28T03:43:22.302Z,84.55
2019-02-28T03:44:19.812Z,84.56
2019-02-28T03:45:04.102Z,84.47
2019-02-28T03:45:54.636Z,84.41
2019-02-28T03:46:46.743Z,84.43
2019-02-28T03:47:35.455Z,84.38
2019-02-28T03:48:26.024Z,84.38
2019-02-28T03:49:16.741Z,84.48
2019-02-28T03:50:08.020Z,84.47
2019-02-28T03:50:58.379Z,84.44
2019-02-28T03:51:48.959Z,84.52
2019-02-28T03:52:43.919Z,84.40
2019-02-28T03:53:29.630Z,84.47
2019-02-28T03:54:20.337Z,84.35
2019-02-28T03:55:10.938Z,84.52
2019-02-28T03:56:01.446Z,84.59
2019-02-28T03:56:53.256Z,84.57
2019-02-28T03:57:41.826Z,84.60
2019-02-28T03:58:31.860Z,84.41
2019-02-28T03:59:22.753Z,84.44
2019-02-28T04:00:14.915Z,84.52
2019-02-28T04:01:09.113Z,84.54
2019-02-28T04:01:55.313Z,84.54
2019-02-28T04:02:46.028Z,84.60
2019-02-28T04:03:37.665Z,84.58
2019-02-28T04:04:28.229Z,84.58
2019-02-28T04:05:18.295Z,84.49
2019-02-28T04:06:10.432Z,84.75
2019-02-28T04:07:01.306Z,84.91
2019-02-28T04:07:53.661Z,85.12
2019-02-28T04:08:42.343Z,84.95
2019-02-28T04:09:33.755Z,84.98
2019-02-28T04:10:24.060Z,85.01
2019-02-28T04:11:14.127Z,84.94
2019-02-28T04:12:08.519Z,85.25
2019-02-28T04:12:56.252Z,85.44
2019-02-28T04:13:47.259Z,85.49
2019-02-28T04:14:37.552Z,85.37
2019-02-28T04:15:27.580Z,85.52
2019-02-28T04:16:17.656Z,85.49
2019-02-28T04:17:08.510Z,85.64
2019-02-28T04:18:06.693Z,85.59
2019-02-28T04:18:50.035Z,85.54
2019-02-28T04:19:41.053Z,85.65
2019-02-28T04:20:36.369Z,85.60
2019-02-28T04:21:22.421Z,85.54
2019-02-28T04:22:12.964Z,85.50
2019-02-28T04:23:03.612Z,85.46
2019-02-28T04:23:54.332Z,85.40
2019-02-28T04:24:46.212Z,85.73
2019-02-28T04:25:35.312Z,85.69
2019-02-28T04:26:29.784Z,85.74
2019-02-28T04:27:16.243Z,85.95
2019-02-28T04:28:06.455Z,86.00
2019-02-28T04:28:56.640Z,86.24
2019-02-28T04:29:46.712Z,86.10
2019-02-28T04:30:42.623Z,86.17
2019-02-28T04:31:27.625Z,86.29
2019-02-28T04:32:18.957Z,86.17
2019-02-28T04:33:10.939Z,86.26
2019-02-28T04:34:01.563Z,86.42
2019-02-28T04:34:51.747Z,86.35
2019-02-28T04:35:42.220Z,86.62
2019-02-28T04:36:35.411Z,86.64
2019-02-28T04:37:23.341Z,86.68
2019-02-28T04:38:13.966Z,86.61
2019-02-28T04:39:05.761Z,86.70
2019-02-28T04:39:56.225Z,86.75
2019-02-28T04:40:46.726Z,86.90
2019-02-28T04:41:37.555Z,86.80
2019-02-28T04:42:28.370Z,86.82
2019-02-28T04:43:19.101Z,87.05
2019-02-28T04:44:09.504Z,87.02
2019-02-28T04:45:00.494Z,86.93
2019-02-28T04:45:51.309Z,86.96
2019-02-28T04:46:41.249Z,86.91
2019-02-28T04:47:31.638Z,86.82
2019-02-28T04:48:22.264Z,86.72
2019-02-28T04:49:12.568Z,86.70
2019-02-28T04:50:03.075Z,86.69
2019-02-28T04:50:54.773Z,86.55
2019-02-28T04:51:45.667Z,86.56
2019-02-28T04:52:36.266Z,86.62
2019-02-28T04:53:26.568Z,86.61
2019-02-28T04:54:17.188Z,86.58
2019-02-28T04:55:07.730Z,86.56
2019-02-28T04:55:58.552Z,86.57
2019-02-28T04:56:48.825Z,86.53
2019-02-28T04:57:39.166Z,86.62
2019-02-28T04:58:29.574Z,86.74
2019-02-28T04:59:20.040Z,86.88
2019-02-28T05:00:10.917Z,86.94
2019-02-28T05:01:01.446Z,86.90
2019-02-28T05:01:51.567Z,86.95
2019-02-28T05:02:42.185Z,87.00
2019-02-28T05:03:32.453Z,87.31
2019-02-28T05:04:22.718Z,87.25
2019-02-28T05:05:13.798Z,87.28
2019-02-28T05:06:04.229Z,87.23
2019-02-28T05:06:55.136Z,87.24
2019-02-28T05:07:46.082Z,87.21
2019-02-28T05:08:38.599Z,87.28
2019-02-28T05:09:26.423Z,87.31
2019-02-28T05:10:19.216Z,87.28
2019-02-28T05:11:07.077Z,87.41
2019-02-28T05:11:57.257Z,87.41
2019-02-28T05:12:47.361Z,87.41
2019-02-28T05:13:38.407Z,87.39
2019-02-28T05:14:28.648Z,87.46
2019-02-28T05:15:19.231Z,87.50
2019-02-28T05:16:12.369Z,87.53
2019-02-28T05:17:01.445Z,87.46
2019-02-28T05:17:53.079Z,87.44
2019-02-28T05:18:42.620Z,87.39
2019-02-28T05:19:35.759Z,87.37
2019-02-28T05:20:23.053Z,87.24
2019-02-28T05:21:13.273Z,87.29
2019-02-28T05:22:04.191Z,87.48
2019-02-28T05:22:54.076Z,87.58
2019-02-28T05:23:44.669Z,87.61
2019-02-28T05:24:35.941Z,87.66
2019-02-28T05:25:27.097Z,87.69
2019-02-28T05:26:17.685Z,87.72
2019-02-28T05:27:08.190Z,87.79
2019-02-28T05:27:58.367Z,87.76
2019-02-28T05:28:48.946Z,87.67
2019-02-28T05:29:39.807Z,87.61
2019-02-28T05:30:30.304Z,87.64
2019-02-28T05:31:21.272Z,87.64
2019-02-28T05:32:11.976Z,87.56
2019-02-28T05:33:02.194Z,87.63
2019-02-28T05:33:53.138Z,87.65
2019-02-28T05:34:43.542Z,87.69
2019-02-28T05:35:34.425Z,87.73
2019-02-28T05:36:25.158Z,87.74
2019-02-28T05:37:16.549Z,87.64
2019-02-28T05:38:06.810Z,87.52
2019-02-28T05:38:57.349Z,87.52
2019-02-28T05:39:47.686Z,87.47
2019-02-28T05:40:41.393Z,87.50
2019-02-28T05:41:28.543Z,87.68
2019-02-28T05:42:20.323Z,87.63
2019-02-28T05:43:09.542Z,87.64
2019-02-28T05:44:03.300Z,87.58
2019-02-28T05:44:51.352Z,87.55
2019-02-28T05:45:42.048Z,87.59
2019-02-28T05:46:32.913Z,87.56
2019-02-28T05:47:23.371Z,87.71
2019-02-28T05:48:13.925Z,87.65
2019-02-28T05:49:04.141Z,87.78
2019-02-28T05:49:54.293Z,87.83
2019-02-28T05:50:46.769Z,87.88
2019-02-28T05:51:35.449Z,87.81
2019-02-28T05:52:26.483Z,87.75
2019-02-28T05:53:16.832Z,87.67
2019-02-28T05:54:07.608Z,87.79
2019-02-28T05:54:57.940Z,87.86
2019-02-28T05:55:48.458Z,87.85
2019-02-28T05:56:39.462Z,87.83
2019-02-28T05:57:29.780Z,87.91
2019-02-28T05:58:20.989Z,87.88
2019-02-28T05:59:11.159Z,87.84
2019-02-28T06:00:02.896Z,87.85
2019-02-28T06:00:52.140Z,87.80
2019-02-28T06:01:46.771Z,87.68
2019-02-28T06:02:34.068Z,87.68
2019-02-28T06:03:24.911Z,87.67
2019-02-28T06:04:15.548Z,87.66
2019-02-28T06:05:08.423Z,87.62
2019-02-28T06:05:56.768Z,87.51
2019-02-28T06:06:47.347Z,87.61
2019-02-28T06:07:37.967Z,87.53
2019-02-28T06:08:28.459Z,87.49
2019-02-28T06:09:19.272Z,87.48
2019-02-28T06:10:09.606Z,87.47
2019-02-28T06:11:01.373Z,87.36
2019-02-28T06:11:50.374Z,87.34
2019-02-28T06:12:43.653Z,87.28
2019-02-28T06:13:31.121Z,87.17
2019-02-28T06:14:26.642Z,87.06
2019-02-28T06:15:12.960Z,87.00
2019-02-28T06:16:03.589Z,86.91
2019-02-28T06:16:54.359Z,86.91
2019-02-28T06:17:45.462Z,86.92
2019-02-28T06:18:35.513Z,86.90
2019-02-28T06:19:25.742Z,86.84
2019-02-28T06:20:17.694Z,86.89
2019-02-28T06:21:06.992Z,86.92
2019-02-28T06:21:59.495Z,86.96
2019-02-28T06:22:47.174Z,86.99
2019-02-28T06:23:37.248Z,87.03
2019-02-28T06:24:29.800Z,87.03
2019-02-28T06:25:24.068Z,86.99
2019-02-28T06:26:11.256Z,86.93
2019-02-28T06:27:03.713Z,86.86
2019-02-28T06:27:53.485Z,86.83
2019-02-28T06:28:44.290Z,86.81
2019-02-28T06:29:36.791Z,86.79
2019-02-28T06:30:27.611Z,86.71
2019-02-28T06:31:15.535Z,86.64
2019-02-28T06:32:06.028Z,86.59
2019-02-28T06:32:59.150Z,86.56
2019-02-28T06:33:47.019Z,86.59
2019-02-28T06:34:39.405Z,86.51
2019-02-28T06:35:28.696Z,86.51
2019-02-28T06:36:19.227Z,86.46
2019-02-28T06:37:09.925Z,86.53
2019-02-28T06:38:00.747Z,86.49
2019-02-28T06:38:54.440Z,86.37
2019-02-28T06:39:41.609Z,86.29
2019-02-28T06:40:32.992Z,86.28
2019-02-28T06:41:22.467Z,86.20
2019-02-28T06:42:13.145Z,86.19
2019-02-28T06:43:03.563Z,86.13
2019-02-28T06:43:53.909Z,86.06
2019-02-28T06:44:44.030Z,86.07
2019-02-28T06:45:37.604Z,86.11
2019-02-28T06:46:24.948Z,86.01
2019-02-28T06:47:15.662Z,85.85
2019-02-28T06:48:05.877Z,85.88
2019-02-28T06:49:01.497Z,85.86
2019-02-28T06:49:47.237Z,85.78
2019-02-28T06:50:37.192Z,85.69
2019-02-28T06:51:27.838Z,85.60
2019-02-28T06:52:18.313Z,85.56
2019-02-28T06:53:08.907Z,85.55
2019-02-28T06:53:59.483Z,85.45
2019-02-28T06:54:50.676Z,85.36
2019-02-28T06:55:47.615Z,85.31
2019-02-28T06:56:37.545Z,85.31
2019-02-28T06:57:27.625Z,85.26
2019-02-28T06:58:17.941Z,85.16
2019-02-28T06:59:09.004Z,84.66
2019-02-28T06:59:59.764Z,84.46
2019-02-28T07:00:50.574Z,84.29
2019-02-28T07:01:40.560Z,83.95
2019-02-28T07:02:31.473Z,83.05
2019-02-28T07:03:21.747Z,81.49
2019-02-28T07:04:14.517Z,79.24
2019-02-28T07:05:02.110Z,78.65
2019-02-28T07:05:52.289Z,76.47
2019-02-28T07:06:42.609Z,74.27
2019-02-28T07:07:33.215Z,71.50
2019-02-28T07:08:24.890Z,70.40
2019-02-28T07:09:14.276Z,68.62
2019-02-28T07:10:06.250Z,68.25
2019-02-28T07:10:56.583Z,67.08
2019-02-28T07:11:46.859Z,66.96
2019-02-28T07:12:37.647Z,66.10
2019-02-28T07:13:28.684Z,66.30
2019-02-28T07:14:19.582Z,65.13
2019-02-28T07:15:09.933Z,65.11
2019-02-28T07:16:00.770Z,64.37
2019-02-28T07:16:51.573Z,63.42
2019-02-28T07:17:46.200Z,63.76
2019-02-28T07:18:32.871Z,62.57
2019-02-28T07:19:26.290Z,61.90
2019-02-28T07:20:14.588Z,61.12
2019-02-28T07:21:07.803Z,61.00
2019-02-28T07:21:55.846Z,61.77
2019-02-28T07:22:46.349Z,59.84
2019-02-28T07:23:37.148Z,57.56
2019-02-28T07:24:27.888Z,56.96
2019-02-28T07:25:18.357Z,56.93
2019-02-28T07:26:09.301Z,56.89
2019-02-28T07:26:59.283Z,58.20
2019-02-28T07:27:49.991Z,57.72
2019-02-28T07:28:40.618Z,55.30
2019-02-28T07:29:32.106Z,57.06
2019-02-28T07:30:21.068Z,57.15
2019-02-28T07:31:11.500Z,54.85
2019-02-28T07:32:02.088Z,52.82
2019-02-28T07:32:53.202Z,51.59
2019-02-28T07:33:44.522Z,53.29
2019-02-28T07:34:34.075Z,52.64
2019-02-28T07:35:24.373Z,51.40
2019-02-28T07:36:14.253Z,52.14
2019-02-28T07:37:04.692Z,54.20
2019-02-28T07:37:55.979Z,53.67
2019-02-28T07:38:45.907Z,51.96
2019-02-28T07:39:40.130Z,51.04
2019-02-28T07:40:27.152Z,53.21
2019-02-28T07:41:17.816Z,53.88
2019-02-28T07:42:08.443Z,52.47
2019-02-28T07:42:58.751Z,54.16
2019-02-28T07:43:48.888Z,50.47
2019-02-28T07:44:39.471Z,49.14
2019-02-28T07:45:33.103Z,48.98
2019-02-28T07:46:20.079Z,51.35
2019-02-28T07:47:10.380Z,47.98
2019-02-28T07:48:01.399Z,50.35
2019-02-28T07:48:52.714Z,50.65
2019-02-28T07:49:43.255Z,50.09
2019-02-28T07:50:33.429Z,52.29
2019-02-28T07:51:26.313Z,52.19
2019-02-28T07:52:14.887Z,48.17
2019-02-28T07:53:05.573Z,48.91
2019-02-28T07:53:55.241Z,48.02
2019-02-28T07:54:47.463Z,48.95
2019-02-28T07:55:36.445Z,47.20
2019-02-28T07:56:26.671Z,46.33
2019-02-28T07:57:17.961Z,46.60
2019-02-28T07:58:07.719Z,44.72
2019-02-28T07:58:58.408Z,47.18
2019-02-28T07:59:49.266Z,46.44
2019-02-28T08:00:40.107Z,47.51
2019-02-28T08:01:30.737Z,47.26
2019-02-28T08:02:21.057Z,48.39
2019-02-28T08:03:12.076Z,47.13
2019-02-28T08:04:02.277Z,45.13
2019-02-28T08:04:54.538Z,44.73
2019-02-28T08:05:43.418Z,45.35
2019-02-28T08:06:36.365Z,47.08
2019-02-28T08:07:24.962Z,46.21
2019-02-28T08:08:15.659Z,46.94
2019-02-28T08:09:14.242Z,47.49
2019-02-28T08:10:07.239Z,47.30
2019-02-28T08:10:57.501Z,46.10
2019-02-28T08:11:48.273Z,45.21
2019-02-28T08:12:38.663Z,47.24
2019-02-28T08:13:29.705Z,46.91
2019-02-28T08:14:20.447Z,44.08
2019-02-28T08:15:14.562Z,44.71
2019-02-28T08:16:05.265Z,44.98
2019-02-28T08:16:55.839Z,44.57
2019-02-28T08:17:46.405Z,46.05
2019-02-28T08:18:37.419Z,47.24
2019-02-28T08:19:28.606Z,45.95
2019-02-28T08:20:19.344Z,46.19
2019-02-28T08:21:09.477Z,45.11
2019-02-28T08:22:00.027Z,44.14
2019-02-28T08:22:50.359Z,42.71
2019-02-28T08:23:42.219Z,42.52
2019-02-28T08:24:35.878Z,42.76
2019-02-28T08:25:23.478Z,43.29
2019-02-28T08:26:15.555Z,42.93
2019-02-28T08:27:04.443Z,43.82
2019-02-28T08:27:59.086Z,41.59
2019-02-28T08:28:45.418Z,43.52
2019-02-28T08:29:35.530Z,41.52
2019-02-28T08:30:26.548Z,41.49
2019-02-28T08:31:17.484Z,40.94
2019-02-28T08:32:08.312Z,41.71
2019-02-28T08:32:58.672Z,42.42
2019-02-28T08:33:49.288Z,40.59
2019-02-28T08:34:39.126Z,40.99
2019-02-28T08:35:34.042Z,41.03
2019-02-28T08:36:20.549Z,42.34
2019-02-28T08:37:11.677Z,40.89
2019-02-28T08:38:02.232Z,40.52
2019-02-28T08:38:53.620Z,41.12
2019-02-28T08:39:44.049Z,42.88
2019-02-28T08:40:34.737Z,43.76
2019-02-28T08:41:26.409Z,41.81
2019-02-28T08:42:17.604Z,41.61
2019-02-28T08:43:10.514Z,41.38
2019-02-28T08:43:59.946Z,40.03
2019-02-28T08:44:50.200Z,39.46
2019-02-28T08:45:40.835Z,39.73
2019-02-28T08:46:31.281Z,40.73
2019-02-28T08:47:22.235Z,40.54
2019-02-28T08:48:12.804Z,41.38
2019-02-28T08:49:06.245Z,41.91
2019-02-28T08:49:53.600Z,40.38
2019-02-28T08:50:44.155Z,42.12
2019-02-28T08:51:34.833Z,42.02
2019-02-28T08:52:25.078Z,43.03
2019-02-28T08:53:16.316Z,41.28
2019-02-28T08:54:06.315Z,42.02
2019-02-28T08:54:59.712Z,42.28
2019-02-28T08:55:47.020Z,41.58
2019-02-28T08:56:37.191Z,41.59
2019-02-28T08:57:27.772Z,41.90
2019-02-28T08:58:18.022Z,41.48
2019-02-28T08:59:11.869Z,42.29
2019-02-28T08:59:58.587Z,41.93
2019-02-28T09:00:49.327Z,43.27
2019-02-28T09:01:41.283Z,41.64
2019-02-28T09:02:30.418Z,42.01
2019-02-28T09:03:20.700Z,40.73
2019-02-28T09:04:11.984Z,41.48
2019-02-28T09:05:02.337Z,43.20
2019-02-28T09:05:52.828Z,42.82
2019-02-28T09:06:43.296Z,41.78
2019-02-28T09:07:33.756Z,42.42
2019-02-28T09:08:25.332Z,41.43
2019-02-28T09:09:15.771Z,42.17
2019-02-28T09:10:11.724Z,40.90
2019-02-28T09:10:57.845Z,40.31
2019-02-28T09:11:49.486Z,41.34
2019-02-28T09:12:40.429Z,40.89
2019-02-28T09:13:31.403Z,40.59
2019-02-28T09:14:21.695Z,41.26
2019-02-28T09:15:12.438Z,41.54
2019-02-28T09:16:04.881Z,41.58
2019-02-28T09:16:53.064Z,41.55
2019-02-28T09:17:44.249Z,40.55
2019-02-28T09:18:34.497Z,40.69
2019-02-28T09:19:25.180Z,41.19
2019-02-28T09:20:15.615Z,40.98
2019-02-28T09:21:06.240Z,41.73
2019-02-28T09:21:56.125Z,42.65
2019-02-28T09:22:46.562Z,40.53
2019-02-28T09:23:37.525Z,42.09
2019-02-28T09:24:27.462Z,42.69
2019-02-28T09:25:21.417Z,43.10
2019-02-28T09:26:07.834Z,41.13
2019-02-28T09:26:58.152Z,40.63
2019-02-28T09:27:49.107Z,41.04
2019-02-28T09:28:40.099Z,41.94
2019-02-28T09:29:30.668Z,42.44
2019-02-28T09:30:33.648Z,41.92
2019-02-28T09:31:24.141Z,42.26
2019-02-28T09:32:15.046Z,40.83
2019-02-28T09:33:05.436Z,41.43
2019-02-28T09:33:58.901Z,42.55
2019-02-28T09:34:47.837Z,41.41
2019-02-28T09:35:38.585Z,41.61
2019-02-28T09:36:28.891Z,40.82
2019-02-28T09:37:19.563Z,40.89
2019-02-28T09:38:13.446Z,39.34
2019-02-28T09:39:00.515Z,41.25
2019-02-28T09:39:51.246Z,40.50
2019-02-28T09:40:41.956Z,41.70
2019-02-28T09:41:32.742Z,41.73
2019-02-28T09:42:23.927Z,41.83
2019-02-28T09:43:14.254Z,40.82
2019-02-28T09:44:06.978Z,41.47
2019-02-28T09:44:55.805Z,40.87
2019-02-28T09:45:47.251Z,40.06
2019-02-28T09:46:37.293Z,41.56
2019-02-28T09:47:28.069Z,42.16
2019-02-28T09:48:18.707Z,39.76
2019-02-28T09:49:12.984Z,40.71
2019-02-28T09:50:00.288Z,41.31
2019-02-28T09:50:50.277Z,40.14
2019-02-28T09:51:42.458Z,40.33
2019-02-28T09:52:32.109Z,40.64
2019-02-28T09:53:22.909Z,41.05
2019-02-28T09:54:13.437Z,41.74
2019-02-28T09:55:04.596Z,40.07
2019-02-28T09:55:55.069Z,41.55
2019-02-28T09:56:45.655Z,41.45
2019-02-28T09:57:36.007Z,40.41
2019-02-28T09:58:29.325Z,39.83
2019-02-28T09:59:17.378Z,39.92
2019-02-28T10:00:11.833Z,39.48
2019-02-28T10:01:01.735Z,40.31
2019-02-28T10:02:00.907Z,39.03
2019-02-28T10:02:43.991Z,40.34
2019-02-28T10:03:34.664Z,39.95
2019-02-28T10:04:27.372Z,40.78
2019-02-28T10:05:15.892Z,39.58
2019-02-28T10:06:06.705Z,41.50
2019-02-28T10:06:56.991Z,40.81
2019-02-28T10:07:47.796Z,40.64
2019-02-28T10:08:38.939Z,40.19
2019-02-28T10:09:29.497Z,41.86
2019-02-28T10:10:22.048Z,41.30
2019-02-28T10:11:12.905Z,40.82
2019-02-28T10:12:04.607Z,40.33
2019-02-28T10:12:56.861Z,39.98
2019-02-28T10:13:49.495Z,39.76
2019-02-28T10:14:36.455Z,41.26
2019-02-28T10:15:26.749Z,39.81
2019-02-28T10:16:17.652Z,38.93
2019-02-28T10:17:06.989Z,38.71
2019-02-28T10:18:00.753Z,39.80
2019-02-28T10:18:48.052Z,39.84
2019-02-28T10:19:45.606Z,39.02
2019-02-28T10:20:28.839Z,39.40
2019-02-28T10:21:19.976Z,38.92
2019-02-28T10:22:12.928Z,39.24
2019-02-28T10:23:01.230Z,39.35
2019-02-28T10:23:53.416Z,40.64
2019-02-28T10:24:41.902Z,41.16
2019-02-28T10:25:31.984Z,40.64
2019-02-28T10:26:22.845Z,39.66
2019-02-28T10:27:13.225Z,40.70
2019-02-28T10:28:04.396Z,39.04
2019-02-28T10:28:55.096Z,39.43
2019-02-28T10:29:46.788Z,39.76
2019-02-28T10:30:36.938Z,39.32
2019-02-28T10:31:36.343Z,38.99
2019-02-28T10:32:17.703Z,38.70
2019-02-28T10:33:08.707Z,39.03
2019-02-28T10:33:59.398Z,38.27
2019-02-28T10:34:51.027Z,37.99
2019-02-28T10:35:41.250Z,38.24
2019-02-28T10:36:31.823Z,39.73
2019-02-28T10:37:22.853Z,38.34
2019-02-28T10:38:12.063Z,37.83
2019-02-28T10:39:05.827Z,39.89
2019-02-28T10:39:52.918Z,38.71
2019-02-28T10:40:43.424Z,38.37
2019-02-28T10:41:35.041Z,36.79
2019-02-28T10:42:26.255Z,36.38
2019-02-28T10:43:17.785Z,37.66
2019-02-28T10:44:08.770Z,38.08
2019-02-28T10:44:59.250Z,38.05
2019-02-28T10:45:49.886Z,36.48
2019-02-28T10:46:40.463Z,37.64
2019-02-28T10:47:31.135Z,36.90
2019-02-28T10:48:21.762Z,36.50
2019-02-28T10:49:12.887Z,35.81
2019-02-28T10:50:04.211Z,36.13
2019-02-28T10:50:54.068Z,35.88
2019-02-28T10:51:49.562Z,36.41
2019-02-28T10:52:35.942Z,36.39